Aérodrome :
LOGIN :

S'inscrire | Disclaimer

   EN    FR    IT 

 










Légende :    VFR   VFR Marginal   IFR   IFR Intensif   IFR Très Intensif
Visi : 
Plafond : 
>= 8 km
>= 3000ft
5 à 8 km
1000 à 3000 ft
1500m à 5 km
500 à 1000 ft
800 à 1500m
200 à 500 ft
< 800m
< 200 ft
Symboles :   Orages  Brouillard  Fortes neiges  Fortes précipitations  Vent > 20 kt
SIGMETs :   Divers  Orages  Givrage  Turbulence  Onde Orograph.  Cendres Volcan.







- Altitude de l'aérodrome : 1682 ft
- Code IATA : VIT


LEVT - Vitoria Gasteiz

DERNIER METAR :
  • 200900Z 32009KT 9999 -RA FEW013 SCT028 BKN055 04/03 Q1013

METARs EXPIRÉS :
  • 200830Z 33007KT 8000 -RA FEW014 SCT023 BKN030 05/03 Q1013
  • 200800Z 34007KT 300V030 9999 FEW014 SCT028 BKN050 04/03 Q1012
  • 200730Z 31008KT 280V340 9999 SCT013 BKN024 05/03 Q1012
  • 200700Z 34005KT 310V050 9999 FEW013 SCT026 05/03 Q1011
  • 200630Z 35007KT 320V020 9999 FEW013 SCT026 05/04 Q1011

TAF TAF LEVT
Valide du 20 à 06h jusqu'au 21 à 06h UTC


200500Z 2006/2106 03005KT 8000 SCT010 BKN020 TX08/2014Z TN02/2007Z
PROB40
TEMPO 2006/2106 3000 -RA SHRA BKN010 BKN020TCU
BECMG 2007/2010 32010KT
PROB30
TEMPO 2012/2016 33015G25KT
Pas de NOTAMs connus pour ce terrain.



MET'MAP, la Météo Aéronautique d'un coup d'oeil ! - Copyright ORBIFLY Décembre 2007 - Disclaimer

ORBIFLY MET'MAP TEAM :

Programmation & Développement : Alexandra Zaïnal
Conception & Développement : Baudouin d'Aumeries
Co-Programmation & Développement : Marc-Olivier Méhu
Soutien technique & logistique : Manuel Goepfert

Contact : metmap@orbifly.com




SOURCES & CREDITS :

   NOAA